PNPAS weather

Campo di Volo Pasiano
Pasiano (PN), Friuli-Venezia Giulia, Italy

Public forecast

Using degrees Celsius for public forecast. Weather courtesy of forecast.io.

Closest aviation weather report (METAR) to Campo di Volo Pasiano

Closest report is Aviano Air Base, 12.0 nm (22.2 km) N. Retrieved 2020/02/24 16:55 UTC (1 hour ago):

LIPA 241655Z 19003KT 9000 BKN035 13/09 Q1018 RMK BKN VIS MIN 9000 WIND THR05 /////KT WIND THR23 /////KT A3009 BLU

Closest aviation forecast (TAF) to Campo di Volo Pasiano

Forecast is more than 12 hours old.

Closest forecast is Aviano Air Base, 12.0 nm (22.2 km) N. Retrieved 2015/11/03 12:24 UTC (4 years ago):

TAF TAF LIPA 031100Z 0312/0324 VRB03KT CAVOK